sensor_id;sensor_type;location;lat;lon;timestamp;P1;durP1;ratioP1;P2;durP2;ratioP2
31298;SDS011;17927;52.350;13.402;2024-01-06T00:02:12;54.67;;;29.80;;
31298;SDS011;17927;52.350;13.402;2024-01-06T00:04:38;55.88;;;29.63;;
31298;SDS011;17927;52.350;13.402;2024-01-06T00:07:03;59.63;;;30.88;;
31298;SDS011;17927;52.350;13.402;2024-01-06T00:09:28;58.50;;;30.02;;
31298;SDS011;17927;52.350;13.402;2024-01-06T00:11:53;53.58;;;29.92;;
31298;SDS011;17927;52.350;13.402;2024-01-06T00:14:19;56.15;;;29.80;;
31298;SDS011;17927;52.350;13.402;2024-01-06T00:16:44;53.28;;;29.50;;
31298;SDS011;17927;52.350;13.402;2024-01-06T00:19:09;54.80;;;28.38;;
31298;SDS011;17927;52.350;13.402;2024-01-06T00:21:35;59.45;;;29.98;;
31298;SDS011;17927;52.350;13.402;2024-01-06T00:24:01;68.75;;;31.40;;
31298;SDS011;17927;52.350;13.402;2024-01-06T00:26:26;59.50;;;29.67;;
31298;SDS011;17927;52.350;13.402;2024-01-06T00:28:51;60.58;;;30.13;;
31298;SDS011;17927;52.350;13.402;2024-01-06T00:31:16;63.15;;;30.20;;
31298;SDS011;17927;52.350;13.402;2024-01-06T00:33:42;54.05;;;29.67;;
31298;SDS011;17927;52.350;13.402;2024-01-06T00:36:07;65.03;;;30.60;;
31298;SDS011;17927;52.350;13.402;2024-01-06T00:38:33;55.72;;;30.45;;
31298;SDS011;17927;52.350;13.402;2024-01-06T00:41:00;61.10;;;30.90;;
31298;SDS011;17927;52.350;13.402;2024-01-06T00:43:25;55.25;;;30.15;;
31298;SDS011;17927;52.350;13.402;2024-01-06T00:45:50;57.92;;;28.88;;
31298;SDS011;17927;52.350;13.402;2024-01-06T00:48:15;56.60;;;30.23;;
31298;SDS011;17927;52.350;13.402;2024-01-06T00:50:41;59.20;;;30.27;;
31298;SDS011;17927;52.350;13.402;2024-01-06T00:53:06;55.33;;;27.40;;
31298;SDS011;17927;52.350;13.402;2024-01-06T00:55:31;62.65;;;30.98;;
31298;SDS011;17927;52.350;13.402;2024-01-06T00:57:56;55.92;;;28.65;;
31298;SDS011;17927;52.350;13.402;2024-01-06T01:00:21;53.67;;;29.40;;
31298;SDS011;17927;52.350;13.402;2024-01-06T01:02:47;54.30;;;29.50;;
31298;SDS011;17927;52.350;13.402;2024-01-06T01:05:13;59.20;;;29.45;;
31298;SDS011;17927;52.350;13.402;2024-01-06T01:07:38;57.58;;;29.50;;
31298;SDS011;17927;52.350;13.402;2024-01-06T01:10:03;54.17;;;28.60;;
31298;SDS011;17927;52.350;13.402;2024-01-06T01:12:29;55.85;;;28.42;;
31298;SDS011;17927;52.350;13.402;2024-01-06T01:14:55;54.47;;;28.63;;
31298;SDS011;17927;52.350;13.402;2024-01-06T01:17:20;56.50;;;29.25;;
31298;SDS011;17927;52.350;13.402;2024-01-06T01:19:45;53.15;;;27.50;;
31298;SDS011;17927;52.350;13.402;2024-01-06T01:22:11;52.38;;;27.10;;
31298;SDS011;17927;52.350;13.402;2024-01-06T01:24:36;58.67;;;28.80;;
31298;SDS011;17927;52.350;13.402;2024-01-06T01:27:02;51.80;;;27.13;;
31298;SDS011;17927;52.350;13.402;2024-01-06T01:29:27;58.03;;;26.55;;
31298;SDS011;17927;52.350;13.402;2024-01-06T01:31:52;53.72;;;27.73;;
31298;SDS011;17927;52.350;13.402;2024-01-06T01:34:17;54.97;;;26.92;;
31298;SDS011;17927;52.350;13.402;2024-01-06T01:36:43;51.47;;;26.58;;
31298;SDS011;17927;52.350;13.402;2024-01-06T01:39:08;52.30;;;26.60;;
31298;SDS011;17927;52.350;13.402;2024-01-06T01:41:34;50.95;;;26.48;;
31298;SDS011;17927;52.350;13.402;2024-01-06T01:44:00;52.60;;;27.25;;
31298;SDS011;17927;52.350;13.402;2024-01-06T01:46:25;46.42;;;25.75;;
31298;SDS011;17927;52.350;13.402;2024-01-06T01:48:51;51.60;;;26.10;;
31298;SDS011;17927;52.350;13.402;2024-01-06T01:51:19;52.40;;;25.98;;
31298;SDS011;17927;52.350;13.402;2024-01-06T01:53:44;50.08;;;25.45;;
31298;SDS011;17927;52.350;13.402;2024-01-06T01:56:10;52.40;;;25.63;;
31298;SDS011;17927;52.350;13.402;2024-01-06T01:58:36;49.13;;;24.23;;
31298;SDS011;17927;52.350;13.402;2024-01-06T02:01:01;48.38;;;25.98;;
31298;SDS011;17927;52.350;13.402;2024-01-06T02:03:27;53.13;;;26.67;;
31298;SDS011;17927;52.350;13.402;2024-01-06T02:05:55;49.25;;;25.27;;
31298;SDS011;17927;52.350;13.402;2024-01-06T02:08:20;45.75;;;24.98;;
31298;SDS011;17927;52.350;13.402;2024-01-06T02:10:45;48.72;;;25.25;;
31298;SDS011;17927;52.350;13.402;2024-01-06T02:13:11;47.53;;;23.73;;
31298;SDS011;17927;52.350;13.402;2024-01-06T02:15:37;48.45;;;25.20;;
31298;SDS011;17927;52.350;13.402;2024-01-06T02:18:02;51.67;;;24.95;;
31298;SDS011;17927;52.350;13.402;2024-01-06T02:20:28;41.70;;;23.98;;
31298;SDS011;17927;52.350;13.402;2024-01-06T02:22:55;45.47;;;24.65;;
31298;SDS011;17927;52.350;13.402;2024-01-06T02:25:22;46.58;;;23.95;;
31298;SDS011;17927;52.350;13.402;2024-01-06T02:27:47;47.00;;;24.65;;
31298;SDS011;17927;52.350;13.402;2024-01-06T02:30:12;42.35;;;22.88;;
31298;SDS011;17927;52.350;13.402;2024-01-06T02:32:37;40.83;;;22.52;;
31298;SDS011;17927;52.350;13.402;2024-01-06T02:35:03;46.13;;;25.15;;
31298;SDS011;17927;52.350;13.402;2024-01-06T02:37:28;45.90;;;23.15;;
31298;SDS011;17927;52.350;13.402;2024-01-06T02:39:53;46.03;;;24.02;;
31298;SDS011;17927;52.350;13.402;2024-01-06T02:42:18;45.15;;;24.10;;
31298;SDS011;17927;52.350;13.402;2024-01-06T02:44:44;43.65;;;22.45;;
31298;SDS011;17927;52.350;13.402;2024-01-06T02:47:09;50.38;;;24.95;;
31298;SDS011;17927;52.350;13.402;2024-01-06T02:49:34;44.65;;;22.80;;
31298;SDS011;17927;52.350;13.402;2024-01-06T02:52:00;48.30;;;25.05;;
31298;SDS011;17927;52.350;13.402;2024-01-06T02:54:25;41.53;;;21.67;;
31298;SDS011;17927;52.350;13.402;2024-01-06T02:56:50;51.50;;;24.20;;
31298;SDS011;17927;52.350;13.402;2024-01-06T02:59:15;46.78;;;23.58;;
31298;SDS011;17927;52.350;13.402;2024-01-06T03:01:41;49.10;;;23.85;;
31298;SDS011;17927;52.350;13.402;2024-01-06T03:04:06;46.90;;;22.50;;
31298;SDS011;17927;52.350;13.402;2024-01-06T03:06:31;43.42;;;23.55;;
31298;SDS011;17927;52.350;13.402;2024-01-06T03:08:56;49.70;;;23.63;;
31298;SDS011;17927;52.350;13.402;2024-01-06T03:11:22;46.20;;;24.88;;
31298;SDS011;17927;52.350;13.402;2024-01-06T03:13:47;52.58;;;23.60;;
31298;SDS011;17927;52.350;13.402;2024-01-06T03:16:12;45.20;;;22.88;;
31298;SDS011;17927;52.350;13.402;2024-01-06T03:18:38;44.45;;;23.20;;
31298;SDS011;17927;52.350;13.402;2024-01-06T03:21:03;41.85;;;24.02;;
31298;SDS011;17927;52.350;13.402;2024-01-06T03:23:28;45.83;;;23.13;;
31298;SDS011;17927;52.350;13.402;2024-01-06T03:25:54;48.97;;;23.70;;
31298;SDS011;17927;52.350;13.402;2024-01-06T03:28:19;45.42;;;23.85;;
31298;SDS011;17927;52.350;13.402;2024-01-06T03:30:44;49.08;;;24.65;;
31298;SDS011;17927;52.350;13.402;2024-01-06T03:33:09;52.47;;;25.25;;
31298;SDS011;17927;52.350;13.402;2024-01-06T03:35:35;49.03;;;25.05;;
31298;SDS011;17927;52.350;13.402;2024-01-06T03:38:00;46.83;;;24.20;;
31298;SDS011;17927;52.350;13.402;2024-01-06T03:40:25;45.90;;;23.95;;
31298;SDS011;17927;52.350;13.402;2024-01-06T03:42:51;48.15;;;24.00;;
31298;SDS011;17927;52.350;13.402;2024-01-06T03:45:28;51.65;;;24.42;;
31298;SDS011;17927;52.350;13.402;2024-01-06T03:47:53;46.55;;;23.42;;
31298;SDS011;17927;52.350;13.402;2024-01-06T03:50:18;45.15;;;23.80;;
31298;SDS011;17927;52.350;13.402;2024-01-06T03:52:44;41.60;;;23.08;;
31298;SDS011;17927;52.350;13.402;2024-01-06T03:55:09;48.13;;;23.77;;
31298;SDS011;17927;52.350;13.402;2024-01-06T03:57:34;51.72;;;24.17;;
31298;SDS011;17927;52.350;13.402;2024-01-06T03:59:59;48.95;;;24.25;;
31298;SDS011;17927;52.350;13.402;2024-01-06T04:02:25;47.97;;;23.77;;
31298;SDS011;17927;52.350;13.402;2024-01-06T04:04:50;52.38;;;25.45;;
31298;SDS011;17927;52.350;13.402;2024-01-06T04:07:15;47.17;;;24.90;;
31298;SDS011;17927;52.350;13.402;2024-01-06T04:09:43;50.30;;;24.05;;
31298;SDS011;17927;52.350;13.402;2024-01-06T04:12:08;54.03;;;23.92;;
31298;SDS011;17927;52.350;13.402;2024-01-06T04:14:34;54.83;;;25.80;;
31298;SDS011;17927;52.350;13.402;2024-01-06T04:16:59;58.05;;;25.50;;
31298;SDS011;17927;52.350;13.402;2024-01-06T04:19:24;52.38;;;25.80;;
31298;SDS011;17927;52.350;13.402;2024-01-06T04:21:49;47.35;;;24.85;;
31298;SDS011;17927;52.350;13.402;2024-01-06T04:24:15;51.92;;;25.63;;
31298;SDS011;17927;52.350;13.402;2024-01-06T04:26:40;54.08;;;26.20;;
31298;SDS011;17927;52.350;13.402;2024-01-06T04:29:05;51.60;;;23.98;;
31298;SDS011;17927;52.350;13.402;2024-01-06T04:31:31;59.90;;;26.75;;
31298;SDS011;17927;52.350;13.402;2024-01-06T04:33:56;49.13;;;25.88;;
31298;SDS011;17927;52.350;13.402;2024-01-06T04:36:21;52.80;;;25.35;;
31298;SDS011;17927;52.350;13.402;2024-01-06T04:38:46;54.45;;;26.13;;
31298;SDS011;17927;52.350;13.402;2024-01-06T04:41:11;60.63;;;26.88;;
31298;SDS011;17927;52.350;13.402;2024-01-06T04:43:37;56.10;;;27.63;;
31298;SDS011;17927;52.350;13.402;2024-01-06T04:46:02;54.70;;;25.35;;
31298;SDS011;17927;52.350;13.402;2024-01-06T04:48:28;51.22;;;24.67;;
31298;SDS011;17927;52.350;13.402;2024-01-06T04:50:53;54.88;;;26.08;;
31298;SDS011;17927;52.350;13.402;2024-01-06T04:53:19;59.78;;;26.80;;
31298;SDS011;17927;52.350;13.402;2024-01-06T04:55:44;55.05;;;25.85;;
31298;SDS011;17927;52.350;13.402;2024-01-06T04:58:09;58.95;;;26.75;;
31298;SDS011;17927;52.350;13.402;2024-01-06T05:00:34;55.15;;;26.50;;
31298;SDS011;17927;52.350;13.402;2024-01-06T05:03:01;54.92;;;26.75;;
31298;SDS011;17927;52.350;13.402;2024-01-06T05:05:26;52.65;;;24.92;;
31298;SDS011;17927;52.350;13.402;2024-01-06T05:07:51;59.50;;;28.33;;
31298;SDS011;17927;52.350;13.402;2024-01-06T05:10:17;58.75;;;27.52;;
31298;SDS011;17927;52.350;13.402;2024-01-06T05:12:42;47.72;;;24.75;;
31298;SDS011;17927;52.350;13.402;2024-01-06T05:15:08;60.28;;;26.90;;
31298;SDS011;17927;52.350;13.402;2024-01-06T05:17:34;52.15;;;26.60;;
31298;SDS011;17927;52.350;13.402;2024-01-06T05:19:59;57.55;;;26.88;;
31298;SDS011;17927;52.350;13.402;2024-01-06T05:22:25;58.20;;;27.38;;
31298;SDS011;17927;52.350;13.402;2024-01-06T05:24:50;53.22;;;26.92;;
31298;SDS011;17927;52.350;13.402;2024-01-06T05:27:18;57.72;;;26.92;;
31298;SDS011;17927;52.350;13.402;2024-01-06T05:29:43;51.33;;;25.10;;
31298;SDS011;17927;52.350;13.402;2024-01-06T05:32:08;57.72;;;26.45;;
31298;SDS011;17927;52.350;13.402;2024-01-06T05:34:34;51.55;;;25.90;;
31298;SDS011;17927;52.350;13.402;2024-01-06T05:37:00;49.50;;;25.30;;
31298;SDS011;17927;52.350;13.402;2024-01-06T05:39:25;50.60;;;25.50;;
31298;SDS011;17927;52.350;13.402;2024-01-06T05:41:51;57.08;;;26.35;;
31298;SDS011;17927;52.350;13.402;2024-01-06T05:44:16;53.22;;;25.27;;
31298;SDS011;17927;52.350;13.402;2024-01-06T05:46:41;53.28;;;26.02;;
31298;SDS011;17927;52.350;13.402;2024-01-06T05:49:06;52.80;;;25.45;;
31298;SDS011;17927;52.350;13.402;2024-01-06T05:51:33;53.85;;;25.65;;
31298;SDS011;17927;52.350;13.402;2024-01-06T05:53:58;61.58;;;27.42;;
31298;SDS011;17927;52.350;13.402;2024-01-06T05:56:24;54.60;;;26.73;;
31298;SDS011;17927;52.350;13.402;2024-01-06T05:58:51;70.10;;;32.67;;
31298;SDS011;17927;52.350;13.402;2024-01-06T06:01:16;61.85;;;28.83;;
31298;SDS011;17927;52.350;13.402;2024-01-06T06:03:42;55.83;;;28.58;;
31298;SDS011;17927;52.350;13.402;2024-01-06T06:06:08;61.25;;;28.67;;
31298;SDS011;17927;52.350;13.402;2024-01-06T06:08:33;67.43;;;31.38;;
31298;SDS011;17927;52.350;13.402;2024-01-06T06:10:58;54.40;;;28.10;;
31298;SDS011;17927;52.350;13.402;2024-01-06T06:13:27;58.08;;;27.23;;
31298;SDS011;17927;52.350;13.402;2024-01-06T06:15:53;59.30;;;26.80;;
31298;SDS011;17927;52.350;13.402;2024-01-06T06:18:19;58.05;;;27.17;;
31298;SDS011;17927;52.350;13.402;2024-01-06T06:20:45;53.85;;;25.38;;
31298;SDS011;17927;52.350;13.402;2024-01-06T06:23:10;54.20;;;26.10;;
31298;SDS011;17927;52.350;13.402;2024-01-06T06:25:37;55.42;;;26.38;;
31298;SDS011;17927;52.350;13.402;2024-01-06T06:28:03;55.20;;;26.92;;
31298;SDS011;17927;52.350;13.402;2024-01-06T06:30:29;56.97;;;27.20;;
31298;SDS011;17927;52.350;13.402;2024-01-06T06:32:54;64.90;;;28.73;;
31298;SDS011;17927;52.350;13.402;2024-01-06T06:35:19;56.17;;;26.80;;
31298;SDS011;17927;52.350;13.402;2024-01-06T06:37:44;56.85;;;28.02;;
31298;SDS011;17927;52.350;13.402;2024-01-06T06:40:10;53.80;;;25.77;;
31298;SDS011;17927;52.350;13.402;2024-01-06T06:42:35;54.55;;;26.40;;
31298;SDS011;17927;52.350;13.402;2024-01-06T06:45:00;58.03;;;27.67;;
31298;SDS011;17927;52.350;13.402;2024-01-06T06:47:26;57.28;;;27.70;;
31298;SDS011;17927;52.350;13.402;2024-01-06T06:49:51;57.05;;;26.08;;
31298;SDS011;17927;52.350;13.402;2024-01-06T06:52:16;65.85;;;27.13;;
31298;SDS011;17927;52.350;13.402;2024-01-06T06:54:41;54.03;;;27.08;;
31298;SDS011;17927;52.350;13.402;2024-01-06T06:57:07;57.45;;;28.30;;
31298;SDS011;17927;52.350;13.402;2024-01-06T06:59:32;53.92;;;27.17;;
31298;SDS011;17927;52.350;13.402;2024-01-06T07:01:57;61.67;;;28.23;;
31298;SDS011;17927;52.350;13.402;2024-01-06T07:04:22;56.15;;;28.60;;
31298;SDS011;17927;52.350;13.402;2024-01-06T07:06:48;56.63;;;28.50;;
31298;SDS011;17927;52.350;13.402;2024-01-06T07:09:13;62.35;;;28.92;;
31298;SDS011;17927;52.350;13.402;2024-01-06T07:11:39;61.22;;;29.75;;
31298;SDS011;17927;52.350;13.402;2024-01-06T07:14:04;58.75;;;28.40;;
31298;SDS011;17927;52.350;13.402;2024-01-06T07:16:29;56.80;;;26.98;;
31298;SDS011;17927;52.350;13.402;2024-01-06T07:18:54;56.67;;;27.17;;
31298;SDS011;17927;52.350;13.402;2024-01-06T07:21:20;58.67;;;27.88;;
31298;SDS011;17927;52.350;13.402;2024-01-06T07:23:45;50.03;;;24.88;;
31298;SDS011;17927;52.350;13.402;2024-01-06T07:26:10;61.28;;;27.35;;
31298;SDS011;17927;52.350;13.402;2024-01-06T07:28:35;53.58;;;26.73;;
31298;SDS011;17927;52.350;13.402;2024-01-06T07:31:01;57.83;;;26.35;;
31298;SDS011;17927;52.350;13.402;2024-01-06T07:33:26;58.63;;;28.15;;
31298;SDS011;17927;52.350;13.402;2024-01-06T07:35:51;64.03;;;28.38;;
31298;SDS011;17927;52.350;13.402;2024-01-06T07:38:16;51.40;;;26.70;;
31298;SDS011;17927;52.350;13.402;2024-01-06T07:40:42;63.05;;;28.63;;
31298;SDS011;17927;52.350;13.402;2024-01-06T07:43:09;53.58;;;27.17;;
31298;SDS011;17927;52.350;13.402;2024-01-06T07:48:25;53.63;;;25.63;;
31298;SDS011;17927;52.350;13.402;2024-01-06T07:50:50;56.95;;;26.50;;
31298;SDS011;17927;52.350;13.402;2024-01-06T07:53:15;59.92;;;26.67;;
31298;SDS011;17927;52.350;13.402;2024-01-06T07:55:40;52.53;;;26.95;;
31298;SDS011;17927;52.350;13.402;2024-01-06T07:58:05;52.45;;;24.52;;
31298;SDS011;17927;52.350;13.402;2024-01-06T08:00:31;54.22;;;24.95;;
31298;SDS011;17927;52.350;13.402;2024-01-06T08:02:56;62.55;;;27.13;;
31298;SDS011;17927;52.350;13.402;2024-01-06T08:05:21;48.15;;;24.35;;
31298;SDS011;17927;52.350;13.402;2024-01-06T08:07:46;56.22;;;26.42;;
31298;SDS011;17927;52.350;13.402;2024-01-06T08:10:12;53.85;;;25.08;;
31298;SDS011;17927;52.350;13.402;2024-01-06T08:12:37;62.47;;;26.75;;
31298;SDS011;17927;52.350;13.402;2024-01-06T08:15:03;66.47;;;27.23;;
31298;SDS011;17927;52.350;13.402;2024-01-06T08:17:29;50.97;;;25.38;;
31298;SDS011;17927;52.350;13.402;2024-01-06T08:19:54;53.42;;;24.75;;
31298;SDS011;17927;52.350;13.402;2024-01-06T08:22:20;58.88;;;25.13;;
31298;SDS011;17927;52.350;13.402;2024-01-06T08:24:45;56.17;;;25.50;;
31298;SDS011;17927;52.350;13.402;2024-01-06T08:27:10;56.25;;;24.80;;
31298;SDS011;17927;52.350;13.402;2024-01-06T08:29:35;64.97;;;26.05;;
31298;SDS011;17927;52.350;13.402;2024-01-06T08:32:01;59.40;;;24.95;;
31298;SDS011;17927;52.350;13.402;2024-01-06T08:34:26;61.08;;;26.65;;
31298;SDS011;17927;52.350;13.402;2024-01-06T08:36:52;57.88;;;25.20;;
31298;SDS011;17927;52.350;13.402;2024-01-06T08:39:17;55.63;;;24.63;;
31298;SDS011;17927;52.350;13.402;2024-01-06T08:41:42;54.85;;;25.50;;
31298;SDS011;17927;52.350;13.402;2024-01-06T08:44:08;63.03;;;26.42;;
31298;SDS011;17927;52.350;13.402;2024-01-06T08:46:33;57.88;;;25.60;;
31298;SDS011;17927;52.350;13.402;2024-01-06T08:48:58;65.68;;;26.35;;
31298;SDS011;17927;52.350;13.402;2024-01-06T08:51:25;60.30;;;25.48;;
31298;SDS011;17927;52.350;13.402;2024-01-06T08:53:51;57.50;;;24.42;;
31298;SDS011;17927;52.350;13.402;2024-01-06T08:56:16;56.70;;;23.02;;
31298;SDS011;17927;52.350;13.402;2024-01-06T08:58:42;55.03;;;23.42;;
31298;SDS011;17927;52.350;13.402;2024-01-06T09:01:08;57.63;;;23.92;;
31298;SDS011;17927;52.350;13.402;2024-01-06T09:03:33;59.60;;;23.90;;
31298;SDS011;17927;52.350;13.402;2024-01-06T09:05:59;62.95;;;25.88;;
31298;SDS011;17927;52.350;13.402;2024-01-06T09:08:24;56.97;;;24.38;;
31298;SDS011;17927;52.350;13.402;2024-01-06T09:10:49;57.90;;;25.45;;
31298;SDS011;17927;52.350;13.402;2024-01-06T09:13:16;58.03;;;25.40;;
31298;SDS011;17927;52.350;13.402;2024-01-06T09:15:42;57.38;;;24.77;;
31298;SDS011;17927;52.350;13.402;2024-01-06T09:18:07;58.95;;;26.15;;
31298;SDS011;17927;52.350;13.402;2024-01-06T09:20:33;56.90;;;24.33;;
31298;SDS011;17927;52.350;13.402;2024-01-06T09:22:58;54.65;;;25.05;;
31298;SDS011;17927;52.350;13.402;2024-01-06T09:25:24;61.42;;;25.45;;
31298;SDS011;17927;52.350;13.402;2024-01-06T09:27:49;56.83;;;24.20;;
31298;SDS011;17927;52.350;13.402;2024-01-06T09:30:16;60.03;;;26.88;;
31298;SDS011;17927;52.350;13.402;2024-01-06T09:32:41;65.88;;;28.17;;
31298;SDS011;17927;52.350;13.402;2024-01-06T09:35:06;53.88;;;23.95;;
31298;SDS011;17927;52.350;13.402;2024-01-06T09:37:32;56.67;;;24.27;;
31298;SDS011;17927;52.350;13.402;2024-01-06T09:39:57;50.40;;;23.58;;
31298;SDS011;17927;52.350;13.402;2024-01-06T09:42:22;51.08;;;22.38;;
31298;SDS011;17927;52.350;13.402;2024-01-06T09:44:48;59.17;;;25.08;;
31298;SDS011;17927;52.350;13.402;2024-01-06T09:47:13;52.60;;;22.73;;
31298;SDS011;17927;52.350;13.402;2024-01-06T09:49:43;55.45;;;23.63;;
31298;SDS011;17927;52.350;13.402;2024-01-06T09:52:14;57.40;;;24.58;;
31298;SDS011;17927;52.350;13.402;2024-01-06T09:54:45;54.65;;;24.40;;
31298;SDS011;17927;52.350;13.402;2024-01-06T09:57:18;51.58;;;23.58;;
31298;SDS011;17927;52.350;13.402;2024-01-06T09:59:44;53.95;;;23.88;;
31298;SDS011;17927;52.350;13.402;2024-01-06T10:02:09;48.63;;;23.33;;
31298;SDS011;17927;52.350;13.402;2024-01-06T10:04:39;45.53;;;22.52;;
31298;SDS011;17927;52.350;13.402;2024-01-06T10:07:04;59.58;;;23.77;;
31298;SDS011;17927;52.350;13.402;2024-01-06T10:09:30;55.50;;;23.35;;
31298;SDS011;17927;52.350;13.402;2024-01-06T10:11:55;55.35;;;25.05;;
31298;SDS011;17927;52.350;13.402;2024-01-06T10:14:23;51.78;;;24.13;;
31298;SDS011;17927;52.350;13.402;2024-01-06T10:16:49;52.13;;;24.05;;
31298;SDS011;17927;52.350;13.402;2024-01-06T10:19:15;54.58;;;25.10;;
31298;SDS011;17927;52.350;13.402;2024-01-06T10:21:40;57.25;;;24.52;;
31298;SDS011;17927;52.350;13.402;2024-01-06T10:24:07;50.70;;;23.55;;
31298;SDS011;17927;52.350;13.402;2024-01-06T10:26:33;54.83;;;22.98;;
31298;SDS011;17927;52.350;13.402;2024-01-06T10:28:58;54.88;;;24.73;;
31298;SDS011;17927;52.350;13.402;2024-01-06T10:31:24;53.42;;;24.15;;
31298;SDS011;17927;52.350;13.402;2024-01-06T10:33:50;51.83;;;23.35;;
31298;SDS011;17927;52.350;13.402;2024-01-06T10:36:16;56.13;;;23.10;;
31298;SDS011;17927;52.350;13.402;2024-01-06T10:38:41;50.53;;;22.90;;
31298;SDS011;17927;52.350;13.402;2024-01-06T10:41:07;52.30;;;23.58;;
31298;SDS011;17927;52.350;13.402;2024-01-06T10:43:35;52.08;;;24.45;;
31298;SDS011;17927;52.350;13.402;2024-01-06T10:46:06;53.25;;;23.10;;
31298;SDS011;17927;52.350;13.402;2024-01-06T10:48:35;54.17;;;23.60;;
31298;SDS011;17927;52.350;13.402;2024-01-06T10:51:03;51.33;;;24.88;;
31298;SDS011;17927;52.350;13.402;2024-01-06T10:53:32;50.17;;;24.17;;
31298;SDS011;17927;52.350;13.402;2024-01-06T10:55:58;47.97;;;24.48;;
31298;SDS011;17927;52.350;13.402;2024-01-06T10:58:24;54.42;;;25.25;;
31298;SDS011;17927;52.350;13.402;2024-01-06T11:00:49;52.10;;;25.17;;
31298;SDS011;17927;52.350;13.402;2024-01-06T11:03:15;52.30;;;24.90;;
31298;SDS011;17927;52.350;13.402;2024-01-06T11:05:42;58.88;;;25.30;;
31298;SDS011;17927;52.350;13.402;2024-01-06T11:08:10;50.15;;;24.20;;
31298;SDS011;17927;52.350;13.402;2024-01-06T11:10:36;54.30;;;24.15;;
31298;SDS011;17927;52.350;13.402;2024-01-06T11:13:07;49.60;;;26.52;;
31298;SDS011;17927;52.350;13.402;2024-01-06T11:15:44;47.03;;;24.02;;
31298;SDS011;17927;52.350;13.402;2024-01-06T11:18:30;54.08;;;26.05;;
31298;SDS011;17927;52.350;13.402;2024-01-06T11:23:37;51.15;;;24.90;;
31298;SDS011;17927;52.350;13.402;2024-01-06T11:26:02;53.28;;;24.92;;
31298;SDS011;17927;52.350;13.402;2024-01-06T11:28:28;49.75;;;25.70;;
31298;SDS011;17927;52.350;13.402;2024-01-06T11:31:07;52.85;;;25.20;;
31298;SDS011;17927;52.350;13.402;2024-01-06T11:33:34;54.85;;;24.65;;
31298;SDS011;17927;52.350;13.402;2024-01-06T11:36:08;46.65;;;23.13;;
31298;SDS011;17927;52.350;13.402;2024-01-06T11:38:37;44.80;;;22.63;;
31298;SDS011;17927;52.350;13.402;2024-01-06T11:41:03;43.92;;;22.77;;
31298;SDS011;17927;52.350;13.402;2024-01-06T11:43:28;47.00;;;24.02;;
31298;SDS011;17927;52.350;13.402;2024-01-06T11:45:55;46.97;;;24.33;;
31298;SDS011;17927;52.350;13.402;2024-01-06T11:48:24;49.47;;;24.55;;
31298;SDS011;17927;52.350;13.402;2024-01-06T11:50:54;51.03;;;24.23;;
31298;SDS011;17927;52.350;13.402;2024-01-06T11:53:19;52.83;;;24.42;;
31298;SDS011;17927;52.350;13.402;2024-01-06T11:55:45;46.38;;;24.83;;
31298;SDS011;17927;52.350;13.402;2024-01-06T11:58:10;45.92;;;25.48;;
31298;SDS011;17927;52.350;13.402;2024-01-06T12:00:35;44.15;;;25.63;;
31298;SDS011;17927;52.350;13.402;2024-01-06T12:03:02;48.10;;;26.73;;
31298;SDS011;17927;52.350;13.402;2024-01-06T12:05:27;49.65;;;25.13;;
31298;SDS011;17927;52.350;13.402;2024-01-06T12:07:54;42.60;;;25.33;;
31298;SDS011;17927;52.350;13.402;2024-01-06T12:10:20;43.85;;;24.25;;
31298;SDS011;17927;52.350;13.402;2024-01-06T12:12:54;46.33;;;25.27;;
31298;SDS011;17927;52.350;13.402;2024-01-06T12:15:23;43.83;;;23.63;;
31298;SDS011;17927;52.350;13.402;2024-01-06T12:17:49;39.38;;;25.08;;
31298;SDS011;17927;52.350;13.402;2024-01-06T12:20:14;47.47;;;24.25;;
31298;SDS011;17927;52.350;13.402;2024-01-06T12:22:39;41.50;;;23.40;;
31298;SDS011;17927;52.350;13.402;2024-01-06T12:25:05;42.92;;;23.73;;
31298;SDS011;17927;52.350;13.402;2024-01-06T12:27:31;42.58;;;23.90;;
31298;SDS011;17927;52.350;13.402;2024-01-06T12:29:58;43.00;;;23.98;;
31298;SDS011;17927;52.350;13.402;2024-01-06T12:32:23;46.45;;;24.88;;
31298;SDS011;17927;52.350;13.402;2024-01-06T12:34:48;34.58;;;21.80;;
31298;SDS011;17927;52.350;13.402;2024-01-06T12:37:14;44.72;;;24.17;;
31298;SDS011;17927;52.350;13.402;2024-01-06T12:39:39;39.92;;;23.17;;
31298;SDS011;17927;52.350;13.402;2024-01-06T12:42:07;39.08;;;22.75;;
31298;SDS011;17927;52.350;13.402;2024-01-06T12:44:33;36.38;;;22.23;;
31298;SDS011;17927;52.350;13.402;2024-01-06T12:47:01;41.17;;;21.80;;
31298;SDS011;17927;52.350;13.402;2024-01-06T12:49:27;39.97;;;22.70;;
31298;SDS011;17927;52.350;13.402;2024-01-06T12:51:52;40.92;;;22.75;;
31298;SDS011;17927;52.350;13.402;2024-01-06T12:54:18;39.45;;;22.63;;
31298;SDS011;17927;52.350;13.402;2024-01-06T12:56:43;40.50;;;23.80;;
31298;SDS011;17927;52.350;13.402;2024-01-06T12:59:08;44.95;;;24.05;;
31298;SDS011;17927;52.350;13.402;2024-01-06T13:01:34;40.50;;;22.92;;
31298;SDS011;17927;52.350;13.402;2024-01-06T13:03:59;41.00;;;23.08;;
31298;SDS011;17927;52.350;13.402;2024-01-06T13:06:26;41.75;;;22.10;;
31298;SDS011;17927;52.350;13.402;2024-01-06T13:08:51;39.10;;;21.75;;
31298;SDS011;17927;52.350;13.402;2024-01-06T13:11:17;40.22;;;23.80;;
31298;SDS011;17927;52.350;13.402;2024-01-06T13:13:43;43.25;;;23.02;;
31298;SDS011;17927;52.350;13.402;2024-01-06T13:16:08;40.47;;;23.73;;
31298;SDS011;17927;52.350;13.402;2024-01-06T13:18:34;42.42;;;23.27;;
31298;SDS011;17927;52.350;13.402;2024-01-06T13:21:00;46.65;;;24.05;;
31298;SDS011;17927;52.350;13.402;2024-01-06T13:23:26;44.83;;;23.25;;
31298;SDS011;17927;52.350;13.402;2024-01-06T13:25:51;42.08;;;23.70;;
31298;SDS011;17927;52.350;13.402;2024-01-06T13:28:17;39.47;;;23.73;;
31298;SDS011;17927;52.350;13.402;2024-01-06T13:30:42;44.22;;;26.27;;
31298;SDS011;17927;52.350;13.402;2024-01-06T13:33:07;49.80;;;25.27;;
31298;SDS011;17927;52.350;13.402;2024-01-06T13:35:35;35.63;;;22.70;;
31298;SDS011;17927;52.350;13.402;2024-01-06T13:38:01;41.95;;;21.80;;
31298;SDS011;17927;52.350;13.402;2024-01-06T13:40:29;40.15;;;22.73;;
31298;SDS011;17927;52.350;13.402;2024-01-06T13:42:54;42.08;;;23.40;;
31298;SDS011;17927;52.350;13.402;2024-01-06T13:45:19;43.28;;;22.25;;
31298;SDS011;17927;52.350;13.402;2024-01-06T13:47:45;43.28;;;22.73;;
31298;SDS011;17927;52.350;13.402;2024-01-06T13:50:14;39.22;;;23.08;;
31298;SDS011;17927;52.350;13.402;2024-01-06T13:52:42;42.45;;;23.80;;
31298;SDS011;17927;52.350;13.402;2024-01-06T13:55:08;46.58;;;25.33;;
31298;SDS011;17927;52.350;13.402;2024-01-06T13:57:33;44.08;;;23.27;;
31298;SDS011;17927;52.350;13.402;2024-01-06T13:59:59;40.83;;;21.77;;
31298;SDS011;17927;52.350;13.402;2024-01-06T14:02:24;37.33;;;20.95;;
31298;SDS011;17927;52.350;13.402;2024-01-06T14:04:50;38.00;;;21.77;;
31298;SDS011;17927;52.350;13.402;2024-01-06T14:07:16;36.60;;;21.90;;